Time;durP1;ratioP1;P1;durP2;ratioP2;P2;SDS_P1;SDS_P2;PMS_P1;PMS_P2;Temp;Humidity;BMP_temperature;BMP_pressure;BME280_temperature;BME280_humidity;BME280_pressure;Samples;Min_cycle;Max_cycle;Signal;HPM_P1;HPM_P2
2023/01/16 00:01:59;;;;;;;20.02;11.50;;;;;;;;;;5065089;28;20033;-83
2023/01/16 00:04:25;;;;;;;22.38;13.00;;;;;;;;;;5052189;28;20395;-83
2023/01/16 00:06:51;;;;;;;22.20;12.80;;;;;;;;;;5063823;28;20028;-83
2023/01/16 00:09:18;;;;;;;36.28;25.08;;;;;;;;;;5051418;28;20032;-83
2023/01/16 00:11:44;;;;;;;34.15;20.08;;;;;;;;;;5042477;28;20136;-83
2023/01/16 00:14:10;;;;;;;32.42;20.27;;;;;;;;;;5051308;28;20032;-83
2023/01/16 00:16:36;;;;;;;31.02;17.05;;;;;;;;;;5070137;28;20043;-83
2023/01/16 00:19:02;;;;;;;29.10;14.98;;;;;;;;;;5068816;28;20039;-83
2023/01/16 00:21:28;;;;;;;29.15;16.85;;;;;;;;;;5050497;28;20038;-83
2023/01/16 00:23:55;;;;;;;32.60;17.80;;;;;;;;;;5049527;28;20028;-83
2023/01/16 00:26:22;;;;;;;27.50;13.18;;;;;;;;;;5051960;28;20083;-82
2023/01/16 00:28:48;;;;;;;21.95;10.98;;;;;;;;;;5051492;28;20060;-83
2023/01/16 00:31:14;;;;;;;18.27;9.38;;;;;;;;;;5052250;28;20036;-82
2023/01/16 00:33:40;;;;;;;19.45;9.77;;;;;;;;;;5069741;28;20418;-83
2023/01/16 00:36:07;;;;;;;27.90;13.32;;;;;;;;;;5068573;28;20508;-83
2023/01/16 00:38:33;;;;;;;19.88;10.02;;;;;;;;;;5069553;28;20063;-82
2023/01/16 00:40:59;;;;;;;13.80;6.68;;;;;;;;;;5069991;28;20028;-82
2023/01/16 00:43:25;;;;;;;14.85;7.45;;;;;;;;;;5051150;28;20111;-82
2023/01/16 00:45:51;;;;;;;13.23;6.30;;;;;;;;;;5052142;28;20115;-82
2023/01/16 00:48:17;;;;;;;9.35;3.75;;;;;;;;;;5069353;28;20056;-83
2023/01/16 00:50:43;;;;;;;10.15;5.18;;;;;;;;;;5047011;28;20083;-83
2023/01/16 00:53:09;;;;;;;15.35;6.78;;;;;;;;;;5046890;28;20487;-82
2023/01/16 00:55:36;;;;;;;24.88;11.88;;;;;;;;;;5051885;28;20029;-82
2023/01/16 00:58:03;;;;;;;18.08;8.20;;;;;;;;;;5051342;28;20796;-82
2023/01/16 01:00:29;;;;;;;17.95;10.13;;;;;;;;;;5066024;28;20052;-83
2023/01/16 01:02:55;;;;;;;17.85;8.18;;;;;;;;;;5069423;28;20067;-83
2023/01/16 01:05:21;;;;;;;16.60;8.75;;;;;;;;;;5051385;28;20075;-83
2023/01/16 01:07:47;;;;;;;13.80;6.80;;;;;;;;;;5051496;28;20098;-83
2023/01/16 01:10:13;;;;;;;13.15;6.55;;;;;;;;;;5048702;28;20790;-82
2023/01/16 01:12:39;;;;;;;23.52;13.02;;;;;;;;;;5051499;28;20032;-82
2023/01/16 01:15:05;;;;;;;19.20;9.95;;;;;;;;;;5068953;28;20103;-83
2023/01/16 01:17:31;;;;;;;17.42;9.70;;;;;;;;;;5063898;28;20116;-83
2023/01/16 01:19:57;;;;;;;16.50;8.35;;;;;;;;;;5050495;28;20175;-82
2023/01/16 01:22:23;;;;;;;18.38;9.60;;;;;;;;;;5063397;28;20044;-82
2023/01/16 01:24:49;;;;;;;18.23;9.40;;;;;;;;;;5049702;28;20458;-83
2023/01/16 01:27:16;;;;;;;14.73;7.57;;;;;;;;;;5047962;28;20167;-83
2023/01/16 01:29:43;;;;;;;13.52;6.32;;;;;;;;;;5043804;28;20025;-83
2023/01/16 01:32:08;;;;;;;10.02;5.32;;;;;;;;;;5053553;28;20521;-83
2023/01/16 01:34:35;;;;;;;11.32;6.10;;;;;;;;;;5052417;28;20033;-83
2023/01/16 01:37:05;;;;;;;11.05;6.03;;;;;;;;;;5048350;28;20182;-83
2023/01/16 01:39:31;;;;;;;14.63;5.68;;;;;;;;;;5065842;28;20028;-83
2023/01/16 01:44:45;;;;;;;12.35;4.55;;;;;;;;;;5063805;28;20039;-83
2023/01/16 01:47:12;;;;;;;5.55;1.92;;;;;;;;;;5065036;28;20040;-83
2023/01/16 01:49:38;;;;;;;6.13;1.83;;;;;;;;;;5050658;28;20036;-83
2023/01/16 01:52:05;;;;;;;8.63;2.08;;;;;;;;;;5069028;28;20074;-83
2023/01/16 01:54:36;;;;;;;3.20;1.08;;;;;;;;;;5068846;28;20032;-82
2023/01/16 01:57:10;;;;;;;4.38;1.65;;;;;;;;;;5056522;28;20550;-83
2023/01/16 01:59:42;;;;;;;5.85;2.35;;;;;;;;;;5050100;28;20079;-83
2023/01/16 02:02:09;;;;;;;8.88;3.97;;;;;;;;;;5069124;28;20063;-83
2023/01/16 02:04:39;;;;;;;11.35;5.65;;;;;;;;;;5050039;28;20090;-83
2023/01/16 02:07:07;;;;;;;7.85;3.72;;;;;;;;;;5050829;28;20029;-83
2023/01/16 02:09:34;;;;;;;8.32;4.20;;;;;;;;;;5064709;28;20133;-83
2023/01/16 02:12:06;;;;;;;19.08;8.55;;;;;;;;;;5050652;28;20044;-83
2023/01/16 02:14:32;;;;;;;;;;;;;;;;;;5068687;28;20796;-82
2023/01/16 02:19:48;;;;;;;7.82;3.53;;;;;;;;;;5062913;28;20581;-82
2023/01/16 02:22:33;;;;;;;7.85;2.88;;;;;;;;;;5052927;28;20129;-83
2023/01/16 02:25:18;;;;;;;5.38;2.53;;;;;;;;;;5071548;28;20082;-82
2023/01/16 02:27:56;;;;;;;6.80;2.25;;;;;;;;;;5054271;28;20426;-83
2023/01/16 02:30:29;;;;;;;6.40;2.67;;;;;;;;;;5072054;28;20039;-82
2023/01/16 02:33:14;;;;;;;5.88;2.75;;;;;;;;;;5072253;28;20048;-82
2023/01/16 02:35:49;;;;;;;7.30;2.42;;;;;;;;;;5069956;28;20063;-83
2023/01/16 02:38:26;;;;;;;10.05;2.70;;;;;;;;;;5053000;28;20106;-83
2023/01/16 02:41:01;;;;;;;7.43;2.53;;;;;;;;;;5054589;28;20474;-83
2023/01/16 02:43:30;;;;;;;5.88;2.13;;;;;;;;;;5052267;28;20056;-82
2023/01/16 02:46:06;;;;;;;6.35;2.50;;;;;;;;;;5045116;28;20055;-82
2023/01/16 02:48:35;;;;;;;6.13;2.95;;;;;;;;;;5061704;28;20029;-82
2023/01/16 02:51:08;;;;;;;9.57;4.15;;;;;;;;;;5046877;28;20032;-82
2023/01/16 02:53:35;;;;;;;;;;;;;;;;;;5053343;28;20568;-82
2023/01/16 02:56:08;;;;;;;4.32;1.40;;;;;;;;;;5050021;28;19909;-82
2023/01/16 02:58:36;;;;;;;5.88;2.38;;;;;;;;;;5038005;28;20033;-82
2023/01/16 03:01:02;;;;;;;7.10;3.17;;;;;;;;;;5071355;28;20115;-82
2023/01/16 03:03:42;;;;;;;14.18;4.00;;;;;;;;;;5043413;28;20655;-83
2023/01/16 03:06:20;;;;;;;15.50;4.70;;;;;;;;;;5069243;28;20723;-83
2023/01/16 03:09:04;;;;;;;9.93;3.10;;;;;;;;;;5053774;28;20034;-82
2023/01/16 03:11:32;;;;;;;5.15;1.95;;;;;;;;;;5071277;28;20060;-82
2023/01/16 03:14:16;;;;;;;14.38;5.75;;;;;;;;;;5070681;28;20035;-82
2023/01/16 03:16:56;;;;;;;33.15;12.27;;;;;;;;;;5039442;28;20479;-83
2023/01/16 03:19:41;;;;;;;23.50;9.05;;;;;;;;;;5043957;28;20047;-82
2023/01/16 03:22:12;;;;;;;10.95;4.00;;;;;;;;;;5047055;28;20123;-82
2023/01/16 03:25:02;;;;;;;10.90;3.80;;;;;;;;;;5052938;28;20158;-82
2023/01/16 03:27:33;;;;;;;3.97;1.58;;;;;;;;;;5069900;28;20040;-82
2023/01/16 03:30:06;;;;;;;4.72;1.42;;;;;;;;;;5051493;28;20136;-82
2023/01/16 03:32:32;;;;;;;4.45;1.60;;;;;;;;;;5051120;28;20085;-82
2023/01/16 03:35:07;;;;;;;83.47;32.05;;;;;;;;;;5034708;28;20059;-82
2023/01/16 03:37:41;;;;;;;13.60;4.65;;;;;;;;;;5052845;28;20436;-83
2023/01/16 03:40:08;;;;;;;34.60;13.65;;;;;;;;;;5070239;28;20039;-83
2023/01/16 03:42:37;;;;;;;17.85;6.63;;;;;;;;;;5050601;28;20084;-82
2023/01/16 03:45:15;;;;;;;13.63;5.43;;;;;;;;;;5049741;28;20487;-83
2023/01/16 03:47:48;;;;;;;6.30;2.50;;;;;;;;;;5046518;28;20037;-82
2023/01/16 03:50:15;;;;;;;29.98;11.15;;;;;;;;;;5051902;28;20264;-83
2023/01/16 03:52:44;;;;;;;16.45;5.93;;;;;;;;;;5068000;28;20024;-83
2023/01/16 03:55:13;;;;;;;7.60;2.47;;;;;;;;;;5070712;28;20032;-82
2023/01/16 03:57:41;;;;;;;5.13;2.17;;;;;;;;;;5052044;28;20811;-82
2023/01/16 04:00:08;;;;;;;4.28;1.65;;;;;;;;;;5049412;28;20040;-83
2023/01/16 04:02:34;;;;;;;2.97;1.02;;;;;;;;;;5062614;28;20087;-83
2023/01/16 04:05:08;;;;;;;2.53;0.75;;;;;;;;;;5070397;28;20040;-83
2023/01/16 04:07:40;;;;;;;3.30;0.90;;;;;;;;;;5048047;28;20083;-83
2023/01/16 04:10:10;;;;;;;2.63;0.70;;;;;;;;;;5045666;28;20674;-83
2023/01/16 04:12:38;;;;;;;2.30;0.68;;;;;;;;;;5051823;28;20119;-82
2023/01/16 04:15:06;;;;;;;4.18;0.68;;;;;;;;;;5052276;28;20043;-82
2023/01/16 04:17:33;;;;;;;4.05;1.20;;;;;;;;;;5070125;28;20032;-83
2023/01/16 04:19:59;;;;;;;2.38;0.82;;;;;;;;;;5063245;28;20024;-82
2023/01/16 04:22:27;;;;;;;6.43;0.82;;;;;;;;;;5059531;28;20087;-82
2023/01/16 04:24:54;;;;;;;3.63;0.63;;;;;;;;;;5070389;28;20099;-82
2023/01/16 04:27:20;;;;;;;2.42;0.60;;;;;;;;;;5062466;28;20036;-82
2023/01/16 04:29:47;;;;;;;2.15;0.60;;;;;;;;;;5051967;28;20070;-83
2023/01/16 04:32:13;;;;;;;2.33;0.50;;;;;;;;;;5069309;28;20036;-82
2023/01/16 04:34:39;;;;;;;2.97;0.50;;;;;;;;;;5069951;28;20028;-83
2023/01/16 04:37:05;;;;;;;2.33;0.60;;;;;;;;;;5051149;28;20056;-83
2023/01/16 04:39:31;;;;;;;1.65;0.50;;;;;;;;;;5051974;28;20035;-82
2023/01/16 04:41:57;;;;;;;1.52;0.40;;;;;;;;;;5050962;28;20044;-82
2023/01/16 04:44:23;;;;;;;2.72;0.57;;;;;;;;;;5051551;28;20530;-82
2023/01/16 04:46:49;;;;;;;3.17;0.40;;;;;;;;;;5051382;28;20082;-83
2023/01/16 04:49:15;;;;;;;3.13;0.73;;;;;;;;;;5058091;28;20029;-83
2023/01/16 04:51:41;;;;;;;4.78;0.80;;;;;;;;;;5031907;28;20065;-82
2023/01/16 04:54:07;;;;;;;3.05;1.10;;;;;;;;;;5051097;28;20029;-82
2023/01/16 04:56:35;;;;;;;2.22;0.57;;;;;;;;;;5066776;28;20079;-82
2023/01/16 04:59:01;;;;;;;1.63;0.47;;;;;;;;;;5050383;28;20087;-83
2023/01/16 05:01:34;;;;;;;1.92;0.55;;;;;;;;;;5036154;28;20817;-83
2023/01/16 05:04:00;;;;;;;2.60;0.50;;;;;;;;;;5046425;28;20033;-83
2023/01/16 05:06:26;;;;;;;3.13;0.52;;;;;;;;;;5049647;28;20044;-83
2023/01/16 05:08:52;;;;;;;2.53;0.70;;;;;;;;;;5051349;28;20371;-83
2023/01/16 05:11:18;;;;;;;5.20;1.35;;;;;;;;;;5051619;28;20044;-83
2023/01/16 05:13:44;;;;;;;6.93;1.85;;;;;;;;;;5069379;28;20107;-83
2023/01/16 05:16:10;;;;;;;2.03;0.60;;;;;;;;;;5070435;28;20170;-83
2023/01/16 05:18:36;;;;;;;5.22;1.65;;;;;;;;;;5071628;28;20038;-83
2023/01/16 05:21:03;;;;;;;2.67;0.50;;;;;;;;;;5052668;28;20456;-84
2023/01/16 05:23:29;;;;;;;1.50;0.35;;;;;;;;;;5044024;28;20767;-83
2023/01/16 05:25:55;;;;;;;2.60;0.40;;;;;;;;;;5051388;28;20927;-83
2023/01/16 05:28:21;;;;;;;0.98;0.40;;;;;;;;;;5050322;28;20024;-82
2023/01/16 05:30:50;;;;;;;2.45;0.60;;;;;;;;;;5051013;28;20486;-83
2023/01/16 05:33:16;;;;;;;1.95;0.95;;;;;;;;;;5050983;28;20037;-83
2023/01/16 05:35:42;;;;;;;0.98;0.20;;;;;;;;;;5059612;28;20154;-83
2023/01/16 05:38:08;;;;;;;2.25;0.30;;;;;;;;;;5051324;28;20040;-84
2023/01/16 05:40:34;;;;;;;1.73;0.50;;;;;;;;;;5050659;28;20478;-83
2023/01/16 05:43:00;;;;;;;0.68;0.20;;;;;;;;;;5048157;28;20096;-83
2023/01/16 05:45:26;;;;;;;4.38;1.13;;;;;;;;;;5050755;28;20056;-84
2023/01/16 05:47:53;;;;;;;3.40;1.05;;;;;;;;;;5050847;28;20150;-84
2023/01/16 05:50:19;;;;;;;7.00;1.90;;;;;;;;;;5047995;28;20060;-83
2023/01/16 05:52:45;;;;;;;6.28;1.50;;;;;;;;;;5045761;28;20063;-83
2023/01/16 05:55:11;;;;;;;12.82;5.03;;;;;;;;;;5050988;28;20111;-83
2023/01/16 05:57:37;;;;;;;16.15;6.97;;;;;;;;;;5053888;28;20063;-83
2023/01/16 06:00:04;;;;;;;13.82;6.40;;;;;;;;;;5055323;28;20031;-83
2023/01/16 06:02:30;;;;;;;8.20;2.95;;;;;;;;;;5053701;28;20697;-83
2023/01/16 06:04:56;;;;;;;9.80;3.72;;;;;;;;;;5051990;28;20049;-83
2023/01/16 06:07:22;;;;;;;9.93;3.67;;;;;;;;;;5047449;28;20040;-83
2023/01/16 06:09:48;;;;;;;11.93;5.88;;;;;;;;;;5055227;28;20747;-83
2023/01/16 06:12:18;;;;;;;7.03;3.25;;;;;;;;;;5054541;28;20151;-83
2023/01/16 06:14:44;;;;;;;7.22;3.30;;;;;;;;;;5051916;28;20041;-83
2023/01/16 06:17:11;;;;;;;6.90;2.70;;;;;;;;;;5050291;28;20065;-83
2023/01/16 06:19:37;;;;;;;6.60;2.55;;;;;;;;;;5051635;28;20024;-83
2023/01/16 06:22:03;;;;;;;10.68;5.40;;;;;;;;;;5054209;28;20468;-82
2023/01/16 06:24:29;;;;;;;8.70;3.80;;;;;;;;;;5050070;28;20033;-83
2023/01/16 06:26:55;;;;;;;11.43;3.58;;;;;;;;;;5066041;28;20032;-82
2023/01/16 06:29:21;;;;;;;6.93;3.42;;;;;;;;;;5053461;28;20025;-83
2023/01/16 06:31:47;;;;;;;9.00;4.18;;;;;;;;;;5053734;28;20074;-83
2023/01/16 06:34:13;;;;;;;10.65;3.28;;;;;;;;;;5071312;28;20035;-83
2023/01/16 06:36:41;;;;;;;8.68;3.28;;;;;;;;;;5052444;28;20934;-83
2023/01/16 06:39:07;;;;;;;6.32;2.72;;;;;;;;;;5051208;28;20032;-80
2023/01/16 06:41:33;;;;;;;12.00;6.65;;;;;;;;;;5071435;28;20036;-83
2023/01/16 06:43:59;;;;;;;12.85;5.10;;;;;;;;;;5054135;28;20064;-85
2023/01/16 06:46:25;;;;;;;14.73;5.15;;;;;;;;;;5053069;28;20043;-85
2023/01/16 06:48:51;;;;;;;15.82;5.38;;;;;;;;;;5050019;28;20031;-84
2023/01/16 06:51:17;;;;;;;11.05;4.22;;;;;;;;;;5054343;28;20055;-83
2023/01/16 06:56:43;;;;;;;6.22;2.00;;;;;;;;;;5306036;23;20738;-82
2023/01/16 06:59:09;;;;;;;7.18;2.05;;;;;;;;;;5050802;28;20049;-83
2023/01/16 07:02:23;;;;;;;6.57;2.40;;;;;;;;;;5066165;28;20110;-83
2023/01/16 07:05:09;;;;;;;;;;;;;;;;;;;;;
2023/01/16 07:07:36;;;;;;;7.75;1.63;;;;;;;;;;5065476;28;20032;-84
2023/01/16 07:10:03;;;;;;;8.38;3.30;;;;;;;;;;5066305;28;20021;-83
2023/01/16 07:12:29;;;;;;;9.20;3.22;;;;;;;;;;5067235;28;20063;-84
2023/01/16 07:23:40;;;;;;;38.67;17.23;;;;;;;;;;5039076;28;20044;-82
2023/01/16 07:26:19;;;;;;;13.00;5.88;;;;;;;;;;5025905;28;20116;-83
2023/01/16 07:28:45;;;;;;;19.17;6.40;;;;;;;;;;5042443;28;20129;-81
2023/01/16 07:31:12;;;;;;;21.63;8.98;;;;;;;;;;5017008;28;20025;-82
2023/01/16 07:33:38;;;;;;;4.00;0.98;;;;;;;;;;5031665;28;20044;-81
2023/01/16 07:36:20;;;;;;;3.25;0.95;;;;;;;;;;5031060;28;20036;-83
2023/01/16 07:41:57;;;;;;;7.35;2.28;;;;;;;;;;5044967;28;20472;-83
2023/01/16 07:50:44;;;;;;;10.35;3.97;;;;;;;;;;4955023;28;20421;-84
2023/01/16 07:53:22;;;;;;;2.53;0.77;;;;;;;;;;5044014;28;20060;-82
2023/01/16 07:55:59;;;;;;;3.78;0.50;;;;;;;;;;5029559;28;20056;-83
2023/01/16 07:58:28;;;;;;;6.82;1.13;;;;;;;;;;5027719;28;20692;-83
2023/01/16 08:01:14;;;;;;;4.20;1.40;;;;;;;;;;5025130;28;20128;-82
2023/01/16 08:03:40;;;;;;;4.85;1.83;;;;;;;;;;5035763;28;20056;-82
2023/01/16 08:06:14;;;;;;;16.13;7.65;;;;;;;;;;5030770;28;20030;-82
2023/01/16 08:08:40;;;;;;;12.10;6.50;;;;;;;;;;5028110;28;20626;-82
2023/01/16 08:13:51;;;;;;;9.07;3.47;;;;;;;;;;5031504;28;20048;-82
2023/01/16 08:16:17;;;;;;;11.82;4.15;;;;;;;;;;5030703;28;20567;-82
2023/01/16 08:18:43;;;;;;;9.02;3.78;;;;;;;;;;5029162;28;20122;-81
2023/01/16 08:21:09;;;;;;;7.43;2.28;;;;;;;;;;5020705;28;20048;-82
2023/01/16 08:23:35;;;;;;;11.35;4.88;;;;;;;;;;5019466;28;20030;-82
2023/01/16 08:26:01;;;;;;;30.85;15.20;;;;;;;;;;5030865;28;20037;-81
2023/01/16 08:28:27;;;;;;;10.60;3.40;;;;;;;;;;5025802;28;20137;-81
2023/01/16 08:30:53;;;;;;;7.82;0.70;;;;;;;;;;5028650;28;20065;-81
2023/01/16 08:33:19;;;;;;;1.77;0.40;;;;;;;;;;5031443;28;20060;-80
2023/01/16 08:35:45;;;;;;;6.43;0.50;;;;;;;;;;5028898;28;20551;-80
2023/01/16 08:38:11;;;;;;;4.20;0.40;;;;;;;;;;5025490;28;20034;-81
2023/01/16 08:40:37;;;;;;;4.57;0.60;;;;;;;;;;5022888;28;20034;-81
2023/01/16 08:51:21;;;;;;;1.25;0.40;;;;;;;;;;5023699;28;20057;-80
2023/01/16 08:53:47;;;;;;;7.25;0.50;;;;;;;;;;5026449;28;20076;-80
2023/01/16 08:56:13;;;;;;;3.35;0.30;;;;;;;;;;5033764;28;20060;-79
2023/01/16 08:58:39;;;;;;;1.88;0.70;;;;;;;;;;5036534;28;20112;-79
2023/01/16 09:01:06;;;;;;;2.78;0.60;;;;;;;;;;5046387;28;20471;-80
2023/01/16 09:03:34;;;;;;;0.43;0.10;;;;;;;;;;5044448;28;20028;-79
2023/01/16 09:06:00;;;;;;;2.35;0.43;;;;;;;;;;5036249;28;20121;-78
2023/01/16 09:08:26;;;;;;;5.15;0.32;;;;;;;;;;5045470;28;20041;-78
2023/01/16 09:13:49;;;;;;;8.60;2.42;;;;;;;;;;5042357;28;20067;-79
2023/01/16 09:16:25;;;;;;;1.70;0.50;;;;;;;;;;5029397;28;20039;-79
2023/01/16 09:18:52;;;;;;;5.40;1.77;;;;;;;;;;5025673;28;20119;-79
2023/01/16 09:21:23;;;;;;;2.17;0.52;;;;;;;;;;5030999;28;20034;-79
2023/01/16 09:23:49;;;;;;;2.00;0.65;;;;;;;;;;5031352;28;20033;-79
2023/01/16 09:26:16;;;;;;;4.10;0.90;;;;;;;;;;5044670;28;20075;-79
2023/01/16 09:28:42;;;;;;;2.17;0.60;;;;;;;;;;5033026;28;20219;-78
2023/01/16 09:31:08;;;;;;;7.15;0.95;;;;;;;;;;5045546;28;20036;-79
2023/01/16 09:33:34;;;;;;;11.38;5.50;;;;;;;;;;5043196;28;20037;-80
2023/01/16 09:36:00;;;;;;;3.95;1.20;;;;;;;;;;5045464;28;20653;-79
2023/01/16 09:38:27;;;;;;;4.28;1.65;;;;;;;;;;5030348;28;20045;-83
2023/01/16 09:40:55;;;;;;;8.85;2.65;;;;;;;;;;5027100;28;20033;-84
2023/01/16 09:43:37;;;;;;;3.13;1.02;;;;;;;;;;5030501;28;20132;-82
2023/01/16 09:46:05;;;;;;;2.40;1.02;;;;;;;;;;5027212;28;20048;-84
2023/01/16 09:48:32;;;;;;;5.95;1.58;;;;;;;;;;5030613;28;20072;-84
2023/01/16 09:51:02;;;;;;;5.45;2.63;;;;;;;;;;5043900;28;20032;-83
2023/01/16 09:59:31;;;;;;;3.10;1.23;;;;;;;;;;5046305;28;20092;-84
2023/01/16 10:02:01;;;;;;;3.13;1.10;;;;;;;;;;5044688;28;20083;-85
2023/01/16 10:04:28;;;;;;;3.00;0.63;;;;;;;;;;5045639;28;20072;-83
2023/01/16 10:07:02;;;;;;;3.10;1.10;;;;;;;;;;5043311;28;20161;-86
2023/01/16 10:09:28;;;;;;;4.93;0.85;;;;;;;;;;5026550;28;20045;-84
2023/01/16 10:11:58;;;;;;;5.35;1.38;;;;;;;;;;5029108;28;20040;-85
2023/01/16 10:14:30;;;;;;;3.70;1.08;;;;;;;;;;5047660;28;20041;-85
2023/01/16 10:25:24;;;;;;;2.22;0.70;;;;;;;;;;652177;26;20302;-82
2023/01/16 10:27:59;;;;;;;2.50;0.70;;;;;;;;;;5061453;22;20167;-85
2023/01/16 10:30:44;;;;;;;5.38;1.30;;;;;;;;;;5011330;28;20048;-85
2023/01/16 10:33:46;;;;;;;;;;;;;;;;;;;;;
2023/01/16 10:36:27;;;;;;;7.53;3.90;;;;;;;;;;5020871;28;20049;-85
2023/01/16 10:39:06;;;;;;;11.65;6.60;;;;;;;;;;5007657;28;20034;-85
2023/01/16 10:54:08;;;;;;;2.70;0.98;;;;;;;;;;5033731;28;20038;-84
2023/01/16 10:56:37;;;;;;;1.52;0.60;;;;;;;;;;5024810;28;20022;-85
2023/01/16 10:59:03;;;;;;;2.28;0.77;;;;;;;;;;5014432;28;20128;-85
2023/01/16 11:01:47;;;;;;;6.60;3.30;;;;;;;;;;5007974;28;20075;-86
2023/01/16 11:04:18;;;;;;;3.95;1.63;;;;;;;;;;5013642;28;20037;-84
2023/01/16 11:06:46;;;;;;;2.50;0.80;;;;;;;;;;5030102;28;20037;-84
2023/01/16 11:09:23;;;;;;;10.43;4.03;;;;;;;;;;5017905;28;20033;-84
2023/01/16 11:20:26;;;;;;;12.27;6.13;;;;;;;;;;5030857;28;20083;-85
2023/01/16 11:22:59;;;;;;;13.50;6.20;;;;;;;;;;5014154;28;20520;-86
2023/01/16 11:25:29;;;;;;;18.00;8.60;;;;;;;;;;5030367;28;20032;-85
2023/01/16 11:27:58;;;;;;;24.70;13.20;;;;;;;;;;5027469;28;20056;-85
2023/01/16 11:30:28;;;;;;;18.30;11.00;;;;;;;;;;5030463;28;20026;-84
2023/01/16 11:32:56;;;;;;;15.68;9.27;;;;;;;;;;5016592;28;20033;-83
2023/01/16 11:35:26;;;;;;;16.80;9.57;;;;;;;;;;5026814;28;20032;-84
2023/01/16 11:37:53;;;;;;;16.85;8.50;;;;;;;;;;5023612;28;20483;-86
2023/01/16 11:40:21;;;;;;;14.23;6.80;;;;;;;;;;5009863;28;20025;-84
2023/01/16 11:46:02;;;;;;;20.35;11.20;;;;;;;;;;5028618;28;20156;-85
2023/01/16 11:48:28;;;;;;;22.38;10.45;;;;;;;;;;5017402;28;20045;-84
2023/01/16 11:50:58;;;;;;;10.40;4.45;;;;;;;;;;5015956;28;20022;-85
2023/01/16 11:53:31;;;;;;;12.27;5.63;;;;;;;;;;5035754;28;20030;-85
2023/01/16 11:56:16;;;;;;;19.05;10.20;;;;;;;;;;5017899;28;20029;-84
2023/01/16 11:59:06;;;;;;;11.77;6.18;;;;;;;;;;5015585;28;20033;-85
2023/01/16 12:04:34;;;;;;;;;;;;;;;;;;5028422;28;20203;-84
2023/01/16 12:07:07;;;;;;;20.08;10.52;;;;;;;;;;5016526;28;20035;-85
2023/01/16 12:09:42;;;;;;;17.52;10.18;;;;;;;;;;5015748;28;20021;-84
2023/01/16 12:15:01;;;;;;;16.20;9.88;;;;;;;;;;5033414;28;20043;-85
2023/01/16 12:17:46;;;;;;;17.38;9.45;;;;;;;;;;5030515;28;20373;-84
2023/01/16 12:20:12;;;;;;;25.00;14.27;;;;;;;;;;5007168;28;20060;-85
2023/01/16 12:22:47;;;;;;;40.95;28.85;;;;;;;;;;5000426;28;20068;-84
2023/01/16 12:25:19;;;;;;;17.90;10.55;;;;;;;;;;5024550;28;20029;-84
2023/01/16 12:27:51;;;;;;;18.30;9.00;;;;;;;;;;5001377;28;20469;-83
2023/01/16 12:30:30;;;;;;;21.48;11.27;;;;;;;;;;5026308;28;20033;-84
2023/01/16 12:32:59;;;;;;;29.40;17.40;;;;;;;;;;5027846;28;20033;-84
2023/01/16 12:35:25;;;;;;;19.27;12.63;;;;;;;;;;5008723;28;20037;-84
2023/01/16 12:38:04;;;;;;;7.60;3.97;;;;;;;;;;5029163;28;20025;-83
2023/01/16 12:40:43;;;;;;;6.43;4.18;;;;;;;;;;5013978;28;20033;-84
2023/01/16 12:43:19;;;;;;;8.18;4.28;;;;;;;;;;5009640;28;20477;-84
2023/01/16 12:45:45;;;;;;;8.98;2.00;;;;;;;;;;5007681;28;20037;-84
2023/01/16 12:48:24;;;;;;;5.80;2.78;;;;;;;;;;5013059;28;20033;-84
2023/01/16 12:51:02;;;;;;;5.68;1.98;;;;;;;;;;5017951;28;20116;-82
2023/01/16 12:53:47;;;;;;;7.10;3.45;;;;;;;;;;5032391;28;20073;-84
2023/01/16 12:56:25;;;;;;;11.35;5.43;;;;;;;;;;5008757;28;20091;-84
2023/01/16 12:58:56;;;;;;;14.15;7.28;;;;;;;;;;5021583;28;20048;-84
2023/01/16 13:01:25;;;;;;;11.30;5.95;;;;;;;;;;5026109;28;20068;-84
2023/01/16 13:04:11;;;;;;;17.85;8.98;;;;;;;;;;5033514;28;20045;-84
2023/01/16 13:06:40;;;;;;;13.15;6.20;;;;;;;;;;5011811;28;20037;-84
2023/01/16 13:09:17;;;;;;;18.60;11.98;;;;;;;;;;5016730;28;20092;-84
2023/01/16 13:14:34;;;;;;;16.10;9.52;;;;;;;;;;5028967;28;20056;-83
2023/01/16 13:17:03;;;;;;;13.05;7.15;;;;;;;;;;5018913;28;20036;-84
2023/01/16 13:19:31;;;;;;;12.80;6.65;;;;;;;;;;5017337;28;20048;-84
2023/01/16 13:21:56;;;;;;;9.00;5.70;;;;;;;;;;5011845;28;20029;-84
2023/01/16 13:24:26;;;;;;;13.65;4.97;;;;;;;;;;5014605;28;20483;-84
2023/01/16 13:26:58;;;;;;;5.53;2.35;;;;;;;;;;5029682;28;20460;-84
2023/01/16 13:29:30;;;;;;;8.65;3.03;;;;;;;;;;5019556;28;20041;-84
2023/01/16 13:31:58;;;;;;;3.47;1.23;;;;;;;;;;5005065;28;20042;-84
2023/01/16 13:34:31;;;;;;;4.80;1.45;;;;;;;;;;5027878;28;20037;-84
2023/01/16 13:37:09;;;;;;;4.57;1.30;;;;;;;;;;5014550;28;20037;-84
2023/01/16 13:39:51;;;;;;;3.33;1.00;;;;;;;;;;5007964;28;20048;-83
2023/01/16 13:42:18;;;;;;;4.45;1.02;;;;;;;;;;5011426;28;20424;-83
2023/01/16 13:47:32;;;;;;;1.98;0.40;;;;;;;;;;5028723;28;20132;-83
2023/01/16 13:50:22;;;;;;;3.78;0.40;;;;;;;;;;5028193;28;20033;-81
2023/01/16 13:52:48;;;;;;;2.70;0.60;;;;;;;;;;5005214;28;20144;-82
2023/01/16 13:55:24;;;;;;;5.38;2.20;;;;;;;;;;5010245;28;20061;-82
2023/01/16 13:57:50;;;;;;;3.35;0.70;;;;;;;;;;5024186;28;20112;-81
2023/01/16 14:00:19;;;;;;;2.08;0.60;;;;;;;;;;5030715;28;20125;-80
2023/01/16 14:02:45;;;;;;;0.82;0.40;;;;;;;;;;5030936;28;20132;-82
2023/01/16 14:05:16;;;;;;;6.93;2.22;;;;;;;;;;5025270;28;20503;-81
2023/01/16 14:10:58;;;;;;;13.63;5.45;;;;;;;;;;5025804;28;20460;-81
2023/01/16 14:13:37;;;;;;;11.05;5.65;;;;;;;;;;5025987;28;20536;-82
2023/01/16 14:16:31;;;;;;;13.75;5.28;;;;;;;;;;5025239;28;20722;-82
2023/01/16 14:18:59;;;;;;;12.32;5.30;;;;;;;;;;5032165;28;20424;-82
2023/01/16 14:21:27;;;;;;;12.85;5.80;;;;;;;;;;5032093;28;20036;-82
2023/01/16 14:24:00;;;;;;;12.35;5.80;;;;;;;;;;5018431;28;20045;-81
2023/01/16 14:26:36;;;;;;;15.55;6.57;;;;;;;;;;5024239;28;20030;-82
2023/01/16 14:29:06;;;;;;;15.65;7.10;;;;;;;;;;5031263;28;20030;-82
2023/01/16 14:31:38;;;;;;;12.52;6.28;;;;;;;;;;5033958;28;20178;-81
2023/01/16 14:34:04;;;;;;;10.45;4.03;;;;;;;;;;5034388;28;20033;-82
2023/01/16 14:36:34;;;;;;;11.82;2.90;;;;;;;;;;5014041;28;20049;-82
2023/01/16 14:39:00;;;;;;;9.63;3.22;;;;;;;;;;5031802;28;20122;-82
2023/01/16 14:55:48;;;;;;;5.22;2.20;;;;;;;;;;5031946;28;20515;-82
2023/01/16 14:58:28;;;;;;;5.70;1.80;;;;;;;;;;5032044;28;20483;-83
2023/01/16 15:02:18;;;;;;;5.97;1.80;;;;;;;;;;5031033;28;20099;-82
2023/01/16 15:03:42;;;;;;;7.05;2.95;;;;;;;;;;5031832;28;20136;-82
2023/01/16 15:06:09;;;;;;;7.97;2.15;;;;;;;;;;5031782;28;20555;-82
2023/01/16 15:08:36;;;;;;;8.75;1.92;;;;;;;;;;5017085;28;20087;-81
2023/01/16 15:11:31;;;;;;;15.15;7.65;;;;;;;;;;5031829;28;20068;-82
2023/01/16 15:14:26;;;;;;;13.63;9.80;;;;;;;;;;5035880;28;20813;-82
2023/01/16 15:23:02;;;;;;;5.03;2.35;;;;;;;;;;5029923;28;20079;-83
2023/01/16 15:25:39;;;;;;;7.72;2.85;;;;;;;;;;5032511;28;20140;-82
2023/01/16 15:28:08;;;;;;;8.35;4.10;;;;;;;;;;5048434;28;20109;-82
2023/01/16 15:30:35;;;;;;;8.50;3.30;;;;;;;;;;5032730;28;20037;-82
2023/01/16 15:35:54;;;;;;;10.25;4.97;;;;;;;;;;5049660;28;20044;-82
2023/01/16 15:38:20;;;;;;;11.82;5.72;;;;;;;;;;5050910;28;20044;-83
2023/01/16 15:40:51;;;;;;;10.07;6.32;;;;;;;;;;5048608;28;20392;-82
2023/01/16 15:46:33;;;;;;;10.93;7.20;;;;;;;;;;5053214;28;20028;-83
2023/01/16 15:49:31;;;;;;;14.52;8.27;;;;;;;;;;5044942;28;20037;-82
2023/01/16 15:51:58;;;;;;;22.73;11.07;;;;;;;;;;4984488;28;20042;-83
2023/01/16 15:54:25;;;;;;;10.82;5.78;;;;;;;;;;5051402;28;20033;-83
2023/01/16 15:56:51;;;;;;;13.25;6.70;;;;;;;;;;5050206;28;20029;-82
2023/01/16 15:59:25;;;;;;;11.60;6.03;;;;;;;;;;5047537;28;20440;-83
2023/01/16 16:01:51;;;;;;;11.98;5.57;;;;;;;;;;5040667;28;20037;-83
2023/01/16 16:04:17;;;;;;;17.23;11.10;;;;;;;;;;5049680;28;20033;-82
2023/01/16 16:06:44;;;;;;;18.10;9.45;;;;;;;;;;5041113;28;20029;-83
2023/01/16 16:09:17;;;;;;;12.88;7.82;;;;;;;;;;5051218;28;20123;-83
2023/01/16 16:11:54;;;;;;;17.48;10.27;;;;;;;;;;5044540;28;20029;-83
2023/01/16 16:20:22;;;;;;;25.13;11.57;;;;;;;;;;5046310;28;20098;-83
2023/01/16 16:22:48;;;;;;;19.30;10.07;;;;;;;;;;5044595;28;20037;-84
2023/01/16 16:25:21;;;;;;;24.02;12.10;;;;;;;;;;5027280;28;20472;-85
2023/01/16 16:27:47;;;;;;;26.02;13.80;;;;;;;;;;5044834;28;20530;-85
2023/01/16 16:30:17;;;;;;;17.92;10.45;;;;;;;;;;5028637;28;20033;-84
2023/01/16 16:32:43;;;;;;;18.48;11.95;;;;;;;;;;5050737;28;20116;-85
2023/01/16 16:35:39;;;;;;;17.90;12.60;;;;;;;;;;5046962;28;20077;-84
2023/01/16 16:38:05;;;;;;;12.05;7.60;;;;;;;;;;5032873;28;20045;-85
2023/01/16 16:40:31;;;;;;;6.28;3.67;;;;;;;;;;5030258;28;20037;-83
2023/01/16 16:43:00;;;;;;;8.27;4.13;;;;;;;;;;5048214;28;20028;-84
2023/01/16 16:45:33;;;;;;;17.63;10.20;;;;;;;;;;5049073;28;20037;-85
2023/01/16 16:48:20;;;;;;;17.83;10.10;;;;;;;;;;5048940;28;20104;-85
2023/01/16 16:50:46;;;;;;;11.30;7.43;;;;;;;;;;5024808;28;20512;-83
2023/01/16 16:53:16;;;;;;;23.48;15.73;;;;;;;;;;5051181;28;20021;-84
2023/01/16 16:55:48;;;;;;;31.50;18.33;;;;;;;;;;5047192;28;20037;-83
2023/01/16 16:58:19;;;;;;;22.88;14.45;;;;;;;;;;5048092;28;20032;-83
2023/01/16 17:00:46;;;;;;;34.53;22.33;;;;;;;;;;5048510;28;20032;-83
2023/01/16 17:03:15;;;;;;;36.92;27.55;;;;;;;;;;5031515;28;20074;-82